Time;durP1;ratioP1;P1;durP2;ratioP2;P2;SDS_P1;SDS_P2;PMS_P1;PMS_P2;Temp;Humidity;BMP_temperature;BMP_pressure;BME280_temperature;BME280_humidity;BME280_pressure;Samples;Min_cycle;Max_cycle;Signal;HPM_P1;HPM_P2
2023/08/31 00:01:34;;;;;;;3.80;2.90;;;;;;;17.12;91.92;99232.33;131416;1261;107384;-78
2023/08/31 00:04:40;;;;;;;3.70;2.90;;;;;;;17.12;91.95;99229.48;131432;1255;107584;-78
2023/08/31 00:07:46;;;;;;;3.70;3.20;;;;;;;17.11;91.92;99228.56;131350;1252;107573;-79
2023/08/31 00:10:59;;;;;;;4.30;3.30;;;;;;;17.11;91.95;99233.17;131496;1259;106913;-78
2023/08/31 00:14:06;;;;;;;3.40;3.10;;;;;;;17.12;92.01;99240.09;131454;1254;106642;-78
2023/08/31 00:17:13;;;;;;;5.60;3.00;;;;;;;17.12;92.01;99246.89;131385;1254;107917;-77
2023/08/31 00:20:19;;;;;;;4.90;3.20;;;;;;;17.12;91.97;99248.41;131514;1250;107826;-78
2023/08/31 00:23:24;;;;;;;3.10;2.70;;;;;;;17.12;91.89;99245.44;131501;1260;107426;-78
2023/08/31 00:26:31;;;;;;;3.10;2.80;;;;;;;17.12;91.85;99247.01;131444;1251;107607;-77
2023/08/31 00:29:38;;;;;;;2.90;2.70;;;;;;;17.11;91.82;99245.31;131507;1253;107674;-77
2023/08/31 00:32:47;;;;;;;2.90;2.40;;;;;;;17.08;91.81;99241.12;131430;1257;107778;-77
2023/08/31 00:35:52;;;;;;;2.60;2.40;;;;;;;17.05;91.80;99231.80;131389;1252;109295;-77
2023/08/31 00:38:58;;;;;;;2.30;2.10;;;;;;;16.99;91.65;99236.30;131442;1254;108737;-77
2023/08/31 00:42:04;;;;;;;3.10;2.40;;;;;;;16.97;91.86;99230.79;131490;1254;107362;-78
2023/08/31 00:45:13;;;;;;;4.20;2.50;;;;;;;16.95;91.60;99225.44;131396;1260;106842;-77
2023/08/31 00:48:21;;;;;;;3.20;2.50;;;;;;;16.91;91.77;99227.11;131478;1254;108630;-78
2023/08/31 00:51:27;;;;;;;2.50;2.20;;;;;;;16.87;91.84;99231.92;131409;1259;108582;-79
2023/08/31 00:54:33;;;;;;;5.30;2.40;;;;;;;16.85;91.87;99236.11;131162;1254;106624;-78
2023/08/31 00:57:38;;;;;;;2.40;1.90;;;;;;;16.84;91.76;99236.63;131313;1252;107680;-78
2023/08/31 01:00:50;;;;;;;3.90;2.50;;;;;;;16.85;91.91;99240.44;131474;1251;107779;-79
2023/08/31 01:04:09;;;;;;;3.20;2.50;;;;;;;16.86;91.85;99240.73;131324;1248;155114;-78
2023/08/31 01:07:24;;;;;;;4.40;2.30;;;;;;;16.86;91.84;99240.80;131148;1253;107707;-77
2023/08/31 01:10:41;;;;;;;2.10;1.90;;;;;;;16.87;91.98;99240.45;131401;1250;107673;-77
2023/08/31 01:13:52;;;;;;;2.90;2.20;;;;;;;16.91;91.91;99244.65;131662;1252;108555;-79
2023/08/31 01:17:01;;;;;;;2.50;2.30;;;;;;;16.94;92.07;99245.63;131513;1254;106699;-79
2023/08/31 01:20:12;;;;;;;2.20;2.00;;;;;;;16.96;91.95;99244.23;131409;1258;107761;-78
2023/08/31 01:23:21;;;;;;;3.40;2.20;;;;;;;16.95;91.67;99246.79;131404;1251;108574;-77
2023/08/31 01:26:28;;;;;;;2.30;1.60;;;;;;;16.94;91.91;99250.94;131276;1253;107390;-77
2023/08/31 01:29:34;;;;;;;1.90;1.70;;;;;;;16.95;91.82;99249.52;131376;1259;107622;-77
2023/08/31 01:32:45;;;;;;;1.80;1.60;;;;;;;16.94;91.77;99251.43;131310;1254;107676;-77
2023/08/31 01:35:55;;;;;;;2.30;1.90;;;;;;;16.95;91.81;99251.96;131427;1250;106672;-77
2023/08/31 01:39:08;;;;;;;1.90;1.70;;;;;;;16.95;91.63;99253.79;131520;1254;106261;-78
2023/08/31 01:42:17;;;;;;;2.90;1.80;;;;;;;16.95;91.74;99250.91;131294;1263;107283;-78
2023/08/31 01:45:24;;;;;;;1.60;1.30;;;;;;;16.93;92.01;99255.83;131462;1251;107796;-77
2023/08/31 01:48:30;;;;;;;2.70;1.70;;;;;;;16.94;91.86;99262.88;131432;1248;107030;-78
2023/08/31 01:51:36;;;;;;;1.60;1.40;;;;;;;16.92;91.68;99261.89;131240;1253;108570;-78
2023/08/31 01:54:42;;;;;;;2.20;1.70;;;;;;;16.95;91.91;99265.48;131295;1257;108718;-78
2023/08/31 01:57:47;;;;;;;3.50;1.60;;;;;;;16.96;91.79;99262.81;131375;1248;107541;-78
2023/08/31 02:00:57;;;;;;;2.10;1.90;;;;;;;16.96;91.74;99266.02;131326;1254;106702;-78
2023/08/31 02:04:03;;;;;;;2.30;1.50;;;;;;;16.95;91.76;99263.33;131417;1261;106283;-79
2023/08/31 02:07:09;;;;;;;3.00;1.50;;;;;;;16.96;91.74;99266.48;131420;1252;108433;-78
2023/08/31 02:10:14;;;;;;;3.60;1.80;;;;;;;16.97;91.84;99270.02;131314;1258;106548;-78
2023/08/31 02:13:22;;;;;;;2.20;1.90;;;;;;;16.99;91.74;99271.86;131486;1257;107962;-78
2023/08/31 02:16:28;;;;;;;3.10;1.90;;;;;;;16.97;91.55;99269.64;131412;1251;107663;-78
2023/08/31 02:19:33;;;;;;;3.10;1.80;;;;;;;16.91;91.63;99267.45;131258;1248;107462;-78
2023/08/31 02:22:39;;;;;;;2.90;1.90;;;;;;;16.90;91.79;99269.58;131406;1252;107525;-79
2023/08/31 02:25:45;;;;;;;2.60;2.20;;;;;;;16.88;91.71;99269.46;131376;1254;107782;-79
2023/08/31 02:28:51;;;;;;;3.10;2.50;;;;;;;16.87;91.71;99267.39;131555;1259;107671;-78
2023/08/31 02:31:56;;;;;;;2.50;2.30;;;;;;;16.89;91.80;99265.35;131544;1251;107730;-79
2023/08/31 02:35:02;;;;;;;4.30;2.80;;;;;;;16.89;91.79;99266.69;131469;1250;107800;-78
2023/08/31 02:38:08;;;;;;;3.00;2.70;;;;;;;16.88;91.86;99268.71;131516;1254;106690;-78
2023/08/31 02:41:13;;;;;;;4.40;3.20;;;;;;;16.90;91.98;99266.55;131427;1250;108601;-78
2023/08/31 02:44:19;;;;;;;5.10;3.60;;;;;;;16.91;91.94;99266.45;131334;1248;107590;-78
2023/08/31 02:47:26;;;;;;;5.80;4.20;;;;;;;16.92;91.88;99270.77;131449;1250;107844;-78
2023/08/31 02:50:31;;;;;;;4.50;4.00;;;;;;;16.91;91.87;99268.90;131341;1250;106471;-78
2023/08/31 02:53:37;;;;;;;6.00;4.20;;;;;;;16.90;91.89;99272.98;131330;1263;106517;-78
2023/08/31 02:56:42;;;;;;;5.10;3.20;;;;;;;16.87;91.95;99269.38;131548;1259;108677;-78
2023/08/31 02:59:51;;;;;;;6.70;3.90;;;;;;;16.88;92.00;99271.05;131517;1248;108482;-79
2023/08/31 03:02:57;;;;;;;7.20;4.80;;;;;;;16.91;92.07;99269.32;131284;1254;106547;-77
2023/08/31 03:06:03;;;;;;;7.70;4.70;;;;;;;16.90;91.89;99266.17;131305;1254;107432;-78
2023/08/31 03:09:09;;;;;;;6.70;5.50;;;;;;;16.87;91.97;99266.73;131394;1259;108659;-78
2023/08/31 03:12:15;;;;;;;6.50;5.80;;;;;;;16.86;92.02;99263.84;131526;1257;107716;-78
2023/08/31 03:15:21;;;;;;;6.10;5.50;;;;;;;16.86;92.01;99264.44;131201;1253;108620;-78
2023/08/31 03:18:27;;;;;;;7.30;6.60;;;;;;;16.84;91.88;99264.22;131459;1251;106667;-78
2023/08/31 03:21:33;;;;;;;9.30;7.50;;;;;;;16.81;91.86;99265.09;131172;1254;107621;-77
2023/08/31 03:24:39;;;;;;;8.70;7.80;;;;;;;16.75;91.82;99270.42;131404;1250;107667;-78
2023/08/31 03:27:44;;;;;;;7.50;6.80;;;;;;;16.69;92.00;99268.15;131505;1253;106334;-78
2023/08/31 03:30:58;;;;;;;7.10;6.20;;;;;;;16.64;91.82;99274.31;131366;1251;106442;-78
2023/08/31 03:34:03;;;;;;;6.30;5.70;;;;;;;16.55;91.97;99275.99;131368;1254;108574;-78
2023/08/31 03:37:09;;;;;;;9.20;6.70;;;;;;;16.53;91.98;99279.02;131131;1254;107684;-79
2023/08/31 03:40:15;;;;;;;8.00;6.50;;;;;;;16.52;92.01;99284.54;131529;1248;106745;-79
2023/08/31 03:43:21;;;;;;;7.50;6.00;;;;;;;16.50;91.92;99288.66;131272;1254;107533;-78
2023/08/31 03:46:27;;;;;;;7.20;5.80;;;;;;;16.46;91.94;99290.29;131384;1251;106708;-79
2023/08/31 03:49:34;;;;;;;6.80;6.10;;;;;;;16.46;92.03;99302.67;131240;1254;105680;-78
2023/08/31 03:52:40;;;;;;;7.00;5.60;;;;;;;16.46;91.99;99310.67;131378;1248;106539;-78
2023/08/31 03:55:46;;;;;;;7.00;5.70;;;;;;;16.48;92.09;99312.61;131297;1262;107807;-78
2023/08/31 03:58:53;;;;;;;4.70;4.20;;;;;;;16.48;91.92;99310.46;131295;1254;106487;-79
2023/08/31 04:01:59;;;;;;;5.90;4.20;;;;;;;16.50;92.09;99311.64;131392;1253;107597;-79
2023/08/31 04:05:08;;;;;;;5.80;5.20;;;;;;;16.51;91.85;99308.19;131515;1248;108662;-78
2023/08/31 04:08:14;;;;;;;6.70;5.80;;;;;;;16.55;91.90;99308.11;131441;1261;106819;-78
2023/08/31 04:11:20;;;;;;;7.50;5.70;;;;;;;16.56;91.69;99306.81;131465;1253;106577;-78
2023/08/31 04:14:26;;;;;;;8.50;6.10;;;;;;;16.52;91.79;99305.74;131426;1248;106834;-77
2023/08/31 04:17:32;;;;;;;7.70;5.40;;;;;;;16.49;91.79;99310.82;131488;1254;108662;-80
2023/08/31 04:20:39;;;;;;;5.90;4.90;;;;;;;16.48;91.75;99316.75;131321;1254;107864;-77
2023/08/31 04:23:46;;;;;;;6.00;5.10;;;;;;;16.48;91.78;99322.91;131458;1250;107912;-78
2023/08/31 04:26:52;;;;;;;5.70;4.70;;;;;;;16.51;91.77;99326.73;131506;1248;108448;-78
2023/08/31 04:29:58;;;;;;;5.90;5.30;;;;;;;16.53;91.88;99324.02;131502;1251;108782;-77
2023/08/31 04:33:04;;;;;;;5.90;5.10;;;;;;;16.53;91.67;99329.68;131423;1254;108701;-78
2023/08/31 04:36:10;;;;;;;7.00;4.90;;;;;;;16.53;91.80;99334.25;131483;1257;106755;-78
2023/08/31 04:39:15;;;;;;;5.10;4.40;;;;;;;16.53;91.89;99334.08;131389;1254;106973;-78
2023/08/31 04:42:21;;;;;;;6.10;4.80;;;;;;;16.54;91.94;99340.95;131501;1251;106839;-78
2023/08/31 04:45:27;;;;;;;6.20;5.20;;;;;;;16.55;91.85;99336.80;131358;1263;106646;-78
2023/08/31 04:48:33;;;;;;;4.90;4.40;;;;;;;16.57;91.74;99347.01;131447;1248;107668;-79
2023/08/31 04:51:39;;;;;;;6.50;4.50;;;;;;;16.58;91.76;99349.27;131621;1248;107090;-78
2023/08/31 04:54:45;;;;;;;5.20;4.70;;;;;;;16.59;91.75;99355.85;131503;1248;106923;-78
2023/08/31 04:57:50;;;;;;;4.90;4.40;;;;;;;16.59;91.63;99362.77;131529;1252;107537;-78
2023/08/31 05:00:56;;;;;;;5.00;4.40;;;;;;;16.64;91.68;99365.36;131385;1254;107804;-77
2023/08/31 05:04:02;;;;;;;5.50;4.40;;;;;;;16.68;91.64;99368.16;131504;1251;107439;-78
2023/08/31 05:07:08;;;;;;;5.50;4.90;;;;;;;16.71;91.73;99371.36;131377;1250;107200;-79
2023/08/31 05:10:13;;;;;;;4.30;3.90;;;;;;;16.73;91.55;99371.53;131353;1253;106463;-78
2023/08/31 05:13:19;;;;;;;6.30;4.70;;;;;;;16.73;91.57;99376.79;131441;1262;106557;-78
2023/08/31 05:16:24;;;;;;;6.30;4.40;;;;;;;16.74;91.63;99381.30;131396;1248;107709;-79
2023/08/31 05:19:31;;;;;;;4.80;4.30;;;;;;;16.80;91.57;99384.52;131557;1254;107737;-78
2023/08/31 05:22:37;;;;;;;4.30;3.90;;;;;;;16.85;91.32;99388.45;131434;1248;107643;-78
2023/08/31 05:25:45;;;;;;;6.00;4.30;;;;;;;16.88;91.44;99382.67;131486;1251;106923;-80
2023/08/31 05:28:51;;;;;;;4.20;3.70;;;;;;;16.92;91.36;99381.66;131612;1254;109093;-78
2023/08/31 05:31:56;;;;;;;4.00;3.60;;;;;;;16.96;91.43;99377.95;131535;1250;107447;-78
2023/08/31 05:35:03;;;;;;;4.70;3.90;;;;;;;17.01;91.24;99377.83;131439;1248;107419;-78
2023/08/31 05:38:08;;;;;;;4.80;3.80;;;;;;;17.08;91.28;99371.73;131420;1253;106633;-78
2023/08/31 05:41:14;;;;;;;4.40;3.60;;;;;;;17.14;90.81;99368.88;131398;1253;107407;-83
2023/08/31 05:44:20;;;;;;;4.70;3.80;;;;;;;17.20;91.06;99372.56;131650;1247;106583;-82
2023/08/31 05:47:25;;;;;;;4.00;3.30;;;;;;;17.27;90.99;99377.73;131631;1247;106783;-81
2023/08/31 05:50:32;;;;;;;4.50;3.70;;;;;;;17.34;90.84;99379.02;131590;1250;107695;-81
2023/08/31 05:53:38;;;;;;;5.40;3.40;;;;;;;17.40;90.68;99379.85;131678;1248;106737;-81
2023/08/31 05:56:44;;;;;;;4.00;3.20;;;;;;;17.48;90.75;99382.27;131650;1253;106463;-80
2023/08/31 05:59:50;;;;;;;5.20;3.30;;;;;;;17.56;90.49;99389.17;131548;1251;107176;-80
2023/08/31 06:02:56;;;;;;;3.80;3.30;;;;;;;17.64;90.54;99390.36;131740;1254;107373;-81
2023/08/31 06:06:03;;;;;;;16.20;4.20;;;;;;;17.72;90.32;99393.88;131802;1247;106857;-82
2023/08/31 06:09:10;;;;;;;4.20;3.50;;;;;;;17.77;90.28;99396.06;131705;1251;106806;-82
2023/08/31 06:12:16;;;;;;;5.40;3.30;;;;;;;17.87;90.34;99397.25;131640;1248;107671;-82
2023/08/31 06:15:23;;;;;;;5.40;3.70;;;;;;;17.99;90.18;99399.63;131598;1257;106563;-82
2023/08/31 06:18:28;;;;;;;5.30;3.90;;;;;;;18.11;89.93;99399.38;131589;1250;106533;-82
2023/08/31 06:21:35;;;;;;;4.80;3.50;;;;;;;18.21;89.82;99400.24;131706;1250;107074;-81
2023/08/31 06:24:42;;;;;;;4.10;3.50;;;;;;;18.34;89.91;99407.98;131602;1254;106336;-81
2023/08/31 06:27:47;;;;;;;3.80;3.40;;;;;;;18.49;89.50;99407.33;131587;1250;107610;-80
2023/08/31 06:30:53;;;;;;;4.40;3.00;;;;;;;18.60;89.23;99403.29;131428;1254;107689;-78
2023/08/31 06:33:59;;;;;;;4.20;3.70;;;;;;;18.76;88.74;99405.84;131509;1247;106875;-78
2023/08/31 06:37:05;;;;;;;4.80;3.20;;;;;;;18.84;87.81;99406.42;131362;1251;107679;-81
2023/08/31 06:40:13;;;;;;;3.80;3.40;;;;;;;18.96;88.24;99406.68;131412;1250;108589;-80
2023/08/31 06:43:18;;;;;;;3.40;3.10;;;;;;;19.06;87.79;99408.14;131815;1248;105913;-80
2023/08/31 06:46:24;;;;;;;3.20;2.70;;;;;;;19.08;87.84;99406.02;131516;1251;108735;-80
2023/08/31 06:49:32;;;;;;;3.60;2.70;;;;;;;19.06;87.53;99407.01;131418;1251;106710;-81
2023/08/31 06:52:38;;;;;;;3.10;2.80;;;;;;;19.08;87.39;99406.92;131639;1254;106683;-81
2023/08/31 06:55:44;;;;;;;4.10;2.70;;;;;;;19.21;86.90;99412.04;131685;1247;106588;-81
2023/08/31 06:58:49;;;;;;;3.00;2.60;;;;;;;19.33;86.92;99408.41;131842;1248;107982;-81
2023/08/31 07:01:55;;;;;;;3.30;3.00;;;;;;;19.45;86.52;99408.13;131781;1251;106643;-80
2023/08/31 07:05:01;;;;;;;3.70;2.70;;;;;;;19.57;86.10;99408.36;131779;1250;107017;-80
2023/08/31 07:08:08;;;;;;;3.20;2.70;;;;;;;19.60;84.38;99408.65;131862;1248;107759;-82
2023/08/31 07:11:13;;;;;;;3.20;2.90;;;;;;;19.57;84.47;99411.84;131617;1248;106521;-78
2023/08/31 07:14:19;;;;;;;4.00;3.20;;;;;;;19.50;84.50;99414.80;131801;1250;106829;-80
2023/08/31 07:17:24;;;;;;;3.70;3.40;;;;;;;19.47;84.85;99420.13;131563;1260;106675;-82
2023/08/31 07:20:30;;;;;;;4.60;3.40;;;;;;;19.44;84.50;99420.98;131673;1250;107097;-81
2023/08/31 07:23:35;;;;;;;3.30;3.00;;;;;;;19.44;84.32;99419.85;132095;1255;107869;-81
2023/08/31 07:26:41;;;;;;;4.60;2.90;;;;;;;19.54;84.31;99419.23;131609;1253;107415;-81
2023/08/31 07:29:46;;;;;;;3.80;3.00;;;;;;;19.67;84.26;99415.81;132477;1248;106760;-80
2023/08/31 07:32:52;;;;;;;3.20;2.90;;;;;;;19.83;83.88;99416.02;132643;1247;108402;-82
2023/08/31 07:35:58;;;;;;;3.30;3.00;;;;;;;20.03;83.92;99411.91;131782;1250;108300;-80
2023/08/31 07:39:04;;;;;;;4.20;3.80;;;;;;;20.18;81.35;99407.05;131596;1253;107620;-81
2023/08/31 07:42:10;;;;;;;4.30;3.50;;;;;;;20.10;81.38;99406.45;131585;1253;107013;-80
2023/08/31 07:45:16;;;;;;;4.40;3.30;;;;;;;20.18;82.65;99406.27;131684;1251;107045;-81
2023/08/31 07:48:21;;;;;;;3.30;2.90;;;;;;;20.31;82.94;99407.77;131573;1250;108172;-81
2023/08/31 07:51:27;;;;;;;3.40;2.80;;;;;;;20.46;82.48;99409.77;131552;1252;107014;-81
2023/08/31 07:54:33;;;;;;;3.40;3.10;;;;;;;20.64;82.53;99408.77;131511;1251;108033;-81
2023/08/31 07:57:38;;;;;;;3.40;3.00;;;;;;;20.81;82.12;99414.00;131592;1248;106457;-82
2023/08/31 08:00:44;;;;;;;4.00;3.50;;;;;;;20.95;81.57;99420.45;131547;1247;106328;-80
2023/08/31 08:03:49;;;;;;;5.00;3.60;;;;;;;21.07;81.67;99421.43;131521;1248;108442;-81
2023/08/31 08:06:55;;;;;;;3.50;3.10;;;;;;;21.06;81.32;99427.98;131522;1251;108627;-81
2023/08/31 08:10:01;;;;;;;3.60;3.20;;;;;;;20.98;80.93;99431.52;131552;1250;106813;-81
2023/08/31 08:13:07;;;;;;;4.80;3.70;;;;;;;20.95;80.97;99434.01;132514;1248;108548;-82
2023/08/31 08:16:12;;;;;;;3.30;3.00;;;;;;;20.92;80.54;99434.34;132554;1247;107008;-82
2023/08/31 08:19:23;;;;;;;3.50;3.20;;;;;;;20.89;80.55;99438.17;133439;1248;108361;-80
2023/08/31 08:22:29;;;;;;;3.60;2.70;;;;;;;20.87;80.93;99447.73;132497;1248;107899;-77
2023/08/31 08:25:35;;;;;;;3.00;2.70;;;;;;;20.92;80.12;99446.86;131582;1250;107098;-77
2023/08/31 08:28:40;;;;;;;3.10;2.50;;;;;;;20.99;79.88;99449.10;131826;1250;108504;-79
2023/08/31 08:31:46;;;;;;;3.40;2.50;;;;;;;21.02;79.34;99451.83;131649;1250;108597;-79
2023/08/31 08:34:52;;;;;;;3.00;2.50;;;;;;;21.22;79.60;99458.72;131436;1253;107818;-78
2023/08/31 08:37:59;;;;;;;3.00;2.70;;;;;;;21.32;78.71;99460.05;131431;1254;109082;-78
2023/08/31 08:41:08;;;;;;;3.30;2.30;;;;;;;21.23;77.17;99459.81;131618;1250;109281;-79
2023/08/31 08:44:17;;;;;;;3.60;2.20;;;;;;;21.25;78.31;99467.73;131383;1248;107046;-79
2023/08/31 08:47:23;;;;;;;3.20;2.10;;;;;;;21.35;77.80;99473.60;131732;1253;107728;-84
2023/08/31 08:50:33;;;;;;;3.10;2.10;;;;;;;21.33;75.24;99474.50;131636;1251;107690;-79
2023/08/31 08:53:43;;;;;;;2.60;2.00;;;;;;;21.31;76.83;99474.02;131639;1253;106905;-80
2023/08/31 08:56:49;;;;;;;1.80;1.70;;;;;;;21.34;75.90;99470.29;131610;1250;106698;-79
2023/08/31 08:59:54;;;;;;;3.80;2.20;;;;;;;21.39;75.44;99472.05;131516;1247;106472;-79
2023/08/31 09:03:01;;;;;;;2.10;1.90;;;;;;;21.40;75.03;99474.08;132964;1247;107439;-80
2023/08/31 09:06:10;;;;;;;3.70;2.20;;;;;;;21.44;74.18;99473.30;133306;1250;108973;-79
2023/08/31 09:09:18;;;;;;;2.60;2.30;;;;;;;21.48;73.96;99467.59;132056;1248;107779;-78
2023/08/31 09:12:26;;;;;;;2.90;2.00;;;;;;;21.56;74.89;99466.58;132307;1248;108601;-79
2023/08/31 09:15:42;;;;;;;2.60;2.40;;;;;;;21.68;74.30;99470.86;132039;1250;107834;-81
2023/08/31 09:18:48;;;;;;;2.60;2.40;;;;;;;21.80;74.57;99472.85;131750;1253;106876;-80
2023/08/31 09:21:56;;;;;;;4.40;2.40;;;;;;;21.99;73.86;99476.09;131480;1247;108569;-82
2023/08/31 09:25:02;;;;;;;3.60;2.30;;;;;;;22.12;73.81;99474.67;131485;1250;108617;-76
2023/08/31 09:28:08;;;;;;;2.60;2.40;;;;;;;22.36;73.88;99478.80;131630;1246;107077;-78
2023/08/31 09:31:14;;;;;;;3.00;2.20;;;;;;;22.62;73.98;99481.99;131415;1253;107655;-76
2023/08/31 09:34:20;;;;;;;2.90;2.40;;;;;;;22.71;72.12;99484.14;131426;1248;106938;-77
2023/08/31 09:37:26;;;;;;;2.80;2.50;;;;;;;22.50;72.45;99488.63;131400;1251;107007;-78
2023/08/31 09:40:31;;;;;;;2.60;2.40;;;;;;;22.33;72.79;99489.97;131384;1253;105648;-78
2023/08/31 09:43:37;;;;;;;3.80;2.60;;;;;;;22.24;72.56;99496.35;131376;1250;107201;-78
2023/08/31 09:46:43;;;;;;;3.10;2.80;;;;;;;22.15;72.05;99497.10;131414;1250;107629;-79
2023/08/31 09:49:49;;;;;;;3.10;2.80;;;;;;;22.14;72.06;99499.52;131457;1264;107353;-81
2023/08/31 09:53:01;;;;;;;4.40;3.40;;;;;;;22.29;72.08;99496.89;131446;1247;107008;-81
2023/08/31 09:56:13;;;;;;;3.10;2.90;;;;;;;22.60;71.99;99495.99;131584;1247;108409;-80
2023/08/31 09:59:19;;;;;;;3.00;2.80;;;;;;;22.86;70.79;99492.44;131918;1253;109189;-78
2023/08/31 10:02:26;;;;;;;3.20;2.60;;;;;;;22.99;71.03;99495.70;131450;1248;107816;-79
2023/08/31 10:05:32;;;;;;;3.00;2.70;;;;;;;23.10;70.99;99494.87;131574;1250;106893;-80
2023/08/31 10:08:38;;;;;;;3.90;3.00;;;;;;;23.15;71.17;99487.20;131540;1252;106205;-79
2023/08/31 10:11:44;;;;;;;3.60;3.00;;;;;;;23.18;70.69;99487.33;131572;1248;108649;-80
2023/08/31 10:14:52;;;;;;;2.50;2.30;;;;;;;23.30;70.59;99490.13;131675;1261;107514;-80
2023/08/31 10:17:59;;;;;;;3.50;2.50;;;;;;;23.40;69.38;99484.69;131552;1254;108628;-81
2023/08/31 10:21:06;;;;;;;3.70;2.60;;;;;;;23.33;69.06;99489.29;131515;1250;106663;-82
2023/08/31 10:24:11;;;;;;;3.10;2.30;;;;;;;23.33;69.15;99493.11;131966;1248;107920;-81
2023/08/31 10:27:23;;;;;;;4.90;2.80;;;;;;;23.32;68.43;99490.91;131587;1250;106325;-81
2023/08/31 10:30:29;;;;;;;3.50;2.70;;;;;;;23.08;67.41;99493.04;131629;1247;107735;-80
2023/08/31 10:33:40;;;;;;;2.90;2.70;;;;;;;22.95;67.67;99498.36;131658;1248;106601;-80
2023/08/31 10:36:46;;;;;;;;;;;;;;;22.89;67.64;99494.69;131511;1250;108564;-80
2023/08/31 10:40:07;;;;;;;2.90;2.40;;;;;;;22.90;66.32;99496.29;131487;1251;107643;-80
2023/08/31 10:43:19;;;;;;;2.40;2.10;;;;;;;22.86;66.93;99493.61;131569;1251;108517;-80
2023/08/31 10:46:33;;;;;;;;;;;;;;;22.98;67.47;99494.31;131635;1251;108584;-80
2023/08/31 10:49:38;;;;;;;2.30;2.10;;;;;;;23.08;67.30;99497.77;131645;1250;107260;-81
2023/08/31 10:52:47;;;;;;;4.00;2.50;;;;;;;23.11;67.26;99494.99;131628;1250;109255;-82
2023/08/31 10:55:55;;;;;;;3.30;2.60;;;;;;;23.18;67.22;99499.15;131581;1248;107974;-83
2023/08/31 10:59:04;;;;;;;4.30;2.30;;;;;;;23.11;66.37;99492.58;131492;1253;107754;-82
2023/08/31 11:02:11;;;;;;;2.70;2.40;;;;;;;23.13;66.22;99501.45;131614;1251;107904;-81
2023/08/31 11:05:17;;;;;;;3.00;2.40;;;;;;;23.12;66.18;99505.90;131588;1248;107675;-82
2023/08/31 11:08:25;;;;;;;4.00;2.70;;;;;;;23.15;66.39;99502.94;131542;1250;108668;-79
2023/08/31 11:11:39;;;;;;;2.40;2.20;;;;;;;23.26;66.62;99496.02;131574;1252;107343;-81
2023/08/31 11:14:45;;;;;;;3.30;2.60;;;;;;;23.41;66.21;99496.20;131567;1253;107872;-81
2023/08/31 11:17:52;;;;;;;3.80;2.40;;;;;;;23.49;65.80;99493.98;131530;1250;107000;-81
2023/08/31 11:20:59;;;;;;;2.80;2.30;;;;;;;23.59;65.73;99497.35;131641;1248;106632;-81
2023/08/31 11:24:05;;;;;;;2.60;2.40;;;;;;;23.75;65.59;99494.50;131562;1250;107849;-81
2023/08/31 11:27:11;;;;;;;3.20;2.50;;;;;;;23.94;65.32;99493.06;131536;1250;108631;-79
2023/08/31 11:30:18;;;;;;;2.90;2.10;;;;;;;24.08;64.88;99494.97;132331;1250;105793;-81
2023/08/31 11:33:23;;;;;;;2.70;2.40;;;;;;;24.15;64.34;99488.81;131721;1248;107306;-80
2023/08/31 11:36:29;;;;;;;2.70;2.30;;;;;;;24.28;64.23;99489.27;131547;1247;107516;-81
2023/08/31 11:39:35;;;;;;;2.50;2.10;;;;;;;24.36;63.85;99486.34;131767;1247;108465;-82
2023/08/31 11:42:41;;;;;;;2.20;2.00;;;;;;;24.40;63.32;99485.88;132322;1250;107689;-80
2023/08/31 11:45:47;;;;;;;2.50;2.10;;;;;;;24.50;63.16;99478.31;132924;1246;106975;-80
2023/08/31 11:48:54;;;;;;;2.90;2.40;;;;;;;24.51;63.17;99476.46;131834;1248;107617;-81
2023/08/31 11:52:00;;;;;;;2.50;2.00;;;;;;;24.56;63.30;99474.98;131674;1248;108979;-80
2023/08/31 11:55:13;;;;;;;2.30;2.10;;;;;;;24.69;62.96;99476.52;131791;1250;106973;-80
2023/08/31 11:58:18;;;;;;;2.50;2.00;;;;;;;24.81;62.32;99471.77;131728;1250;106896;-80
2023/08/31 12:01:24;;;;;;;3.10;2.40;;;;;;;24.87;61.75;99466.94;131749;1248;108199;-80
2023/08/31 12:04:30;;;;;;;2.20;2.00;;;;;;;24.85;61.96;99469.44;131564;1250;108381;-82
2023/08/31 12:07:42;;;;;;;2.30;2.10;;;;;;;24.92;62.24;99462.37;131556;1251;108455;-83
2023/08/31 12:10:48;;;;;;;2.40;2.20;;;;;;;24.97;61.77;99458.51;131691;1248;107470;-81
2023/08/31 12:13:54;;;;;;;2.10;1.90;;;;;;;25.00;60.73;99457.05;131771;1250;108044;-82
2023/08/31 12:17:06;;;;;;;2.60;2.20;;;;;;;25.06;61.03;99458.38;131879;1253;108729;-81
2023/08/31 12:20:13;;;;;;;2.60;2.30;;;;;;;24.95;60.58;99463.41;131652;1247;107631;-80
2023/08/31 12:23:21;;;;;;;3.10;2.20;;;;;;;24.78;60.66;99467.39;131539;1248;107495;-80
2023/08/31 12:26:27;;;;;;;3.80;2.00;;;;;;;24.67;60.20;99480.48;131673;1250;107923;-79
2023/08/31 12:29:33;;;;;;;2.50;2.30;;;;;;;24.37;58.86;99495.45;131870;1252;106669;-83
2023/08/31 12:32:41;;;;;;;4.60;2.70;;;;;;;23.69;53.68;99508.33;131693;1253;106800;-81
2023/08/31 12:35:47;;;;;;;3.40;2.20;;;;;;;22.77;57.10;99510.75;133142;1248;106930;-81
2023/08/31 12:38:53;;;;;;;4.90;2.60;;;;;;;22.23;57.43;99522.73;131588;1248;106691;-80
2023/08/31 12:41:59;;;;;;;2.60;2.40;;;;;;;21.47;57.81;99524.33;131475;1246;108509;-79
2023/08/31 12:45:06;;;;;;;3.40;2.70;;;;;;;20.61;59.51;99521.58;131602;1250;108665;-80
2023/08/31 12:48:12;;;;;;;3.20;2.60;;;;;;;19.95;61.07;99518.98;131397;1250;106834;-78
2023/08/31 12:51:17;;;;;;;4.00;2.80;;;;;;;19.52;62.01;99521.88;131511;1250;107699;-80
2023/08/31 12:54:23;;;;;;;3.90;2.60;;;;;;;19.27;62.89;99517.90;131742;1246;106999;-79
2023/08/31 12:57:29;;;;;;;5.80;2.80;;;;;;;19.18;63.17;99522.20;131566;1252;108465;-79
2023/08/31 13:00:35;;;;;;;4.10;2.30;;;;;;;19.16;63.32;99527.92;131760;1250;107977;-80
2023/08/31 13:03:40;;;;;;;3.80;2.40;;;;;;;19.20;63.63;99535.12;131681;1248;131529;-80
2023/08/31 13:06:46;;;;;;;3.40;2.80;;;;;;;19.21;63.99;99551.33;131616;1246;108360;-80
2023/08/31 13:09:52;;;;;;;2.80;2.50;;;;;;;19.22;64.37;99559.23;131468;1250;107730;-80
2023/08/31 13:12:57;;;;;;;3.40;2.60;;;;;;;19.21;64.83;99564.92;131538;1250;106747;-80
2023/08/31 13:16:03;;;;;;;3.70;2.20;;;;;;;19.17;65.08;99578.01;131411;1250;108073;-79
2023/08/31 13:19:09;;;;;;;3.20;2.70;;;;;;;19.12;65.37;99578.84;131461;1250;108465;-80
2023/08/31 13:22:16;;;;;;;3.20;2.50;;;;;;;19.04;65.71;99588.80;131423;1253;107413;-80
2023/08/31 13:25:22;;;;;;;4.30;3.20;;;;;;;18.97;66.31;99607.57;131449;1250;108744;-80
2023/08/31 13:28:28;;;;;;;6.60;3.70;;;;;;;18.77;67.44;99623.75;131464;1251;107969;-79
2023/08/31 13:31:34;;;;;;;4.40;3.90;;;;;;;18.62;67.38;99637.77;131723;1250;107010;-80
2023/08/31 13:34:39;;;;;;;7.10;4.00;;;;;;;18.50;67.86;99636.19;131457;1250;107627;-80
2023/08/31 13:37:45;;;;;;;4.70;3.70;;;;;;;18.44;68.89;99622.70;131465;1250;107700;-81
2023/08/31 13:40:54;;;;;;;4.00;3.50;;;;;;;18.40;69.93;99600.81;131389;1247;107910;-81
2023/08/31 13:44:00;;;;;;;7.30;4.20;;;;;;;18.58;69.90;99613.69;131593;1250;106633;-81
2023/08/31 13:47:06;;;;;;;5.60;4.40;;;;;;;18.91;70.60;99598.96;131594;1248;108679;-80
2023/08/31 13:50:12;;;;;;;4.80;4.40;;;;;;;19.15;70.58;99601.37;131403;1248;107934;-80
2023/08/31 13:53:17;;;;;;;5.60;4.80;;;;;;;19.46;70.75;99603.92;131487;1248;106551;-81
2023/08/31 13:56:23;;;;;;;5.40;4.90;;;;;;;19.62;70.53;99604.30;131553;1248;108497;-83
2023/08/31 13:59:29;;;;;;;6.30;4.90;;;;;;;19.68;70.52;99600.02;131541;1250;107502;-79
2023/08/31 14:02:35;;;;;;;6.70;5.10;;;;;;;19.78;70.88;99599.79;131398;1246;108626;-80
2023/08/31 14:05:42;;;;;;;6.00;5.40;;;;;;;19.85;71.02;99610.27;131585;1250;107480;-79
2023/08/31 14:08:48;;;;;;;5.30;4.80;;;;;;;20.00;71.39;99618.80;131463;1248;107749;-79
2023/08/31 14:11:55;;;;;;;5.30;4.80;;;;;;;20.13;71.67;99623.29;131410;1248;109009;-78
2023/08/31 14:15:04;;;;;;;5.00;4.60;;;;;;;20.25;71.56;99636.94;131479;1253;107674;-78
2023/08/31 14:18:09;;;;;;;5.00;4.50;;;;;;;20.33;71.83;99645.28;131632;1248;108483;-78